Time;durP1;ratioP1;P1;durP2;ratioP2;P2;SDS_P1;SDS_P2;PMS_P1;PMS_P2;Temp;Humidity;BMP_temperature;BMP_pressure;BME280_temperature;BME280_humidity;BME280_pressure;Samples;Min_cycle;Max_cycle;Signal;HPM_P1;HPM_P2
2022/08/16 00:02:25;;;;;;;6.57;2.07;;;;;;;16.81;100.00;96072.72;5058905;28;20211;-52
2022/08/16 00:04:51;;;;;;;2.00;1.90;;;;;;;16.81;100.00;96070.06;5044094;28;20306;-51
2022/08/16 00:07:18;;;;;;;1.90;1.80;;;;;;;16.78;100.00;96081.13;5044203;28;20599;-51
2022/08/16 00:09:45;;;;;;;2.43;2.23;;;;;;;16.88;100.00;96081.59;5046744;28;20536;-50
2022/08/16 00:12:11;;;;;;;1.90;1.80;;;;;;;16.76;100.00;96077.81;5046014;28;20284;-52
2022/08/16 00:14:39;;;;;;;1.80;1.70;;;;;;;16.69;100.00;96082.28;5045057;28;20283;-51
2022/08/16 00:17:06;;;;;;;2.17;1.97;;;;;;;16.79;100.00;96081.97;5043762;28;20298;-52
2022/08/16 00:19:34;;;;;;;2.23;2.07;;;;;;;16.69;100.00;96082.28;5045512;28;20220;-52
2022/08/16 00:22:01;;;;;;;1.92;1.83;;;;;;;16.71;100.00;96079.44;5045023;28;20278;-52
2022/08/16 00:24:29;;;;;;;2.97;2.23;;;;;;;16.61;100.00;96077.09;5045177;28;20295;-49
2022/08/16 00:26:56;;;;;;;3.00;2.40;;;;;;;16.65;100.00;96080.22;5044588;28;20226;-49
2022/08/16 00:29:23;;;;;;;2.17;2.08;;;;;;;16.67;100.00;96073.66;5044504;28;20291;-49
2022/08/16 00:31:52;;;;;;;2.40;2.20;;;;;;;16.61;100.00;96069.09;5045272;28;20290;-49
2022/08/16 00:34:20;;;;;;;2.77;2.37;;;;;;;16.53;100.00;96074.53;5043011;28;20226;-49
2022/08/16 00:36:49;;;;;;;2.50;2.30;;;;;;;16.49;100.00;96067.94;5043121;28;20204;-48
2022/08/16 00:39:19;;;;;;;2.33;2.13;;;;;;;16.55;100.00;96069.81;5043588;28;20245;-50
2022/08/16 00:41:47;;;;;;;2.10;2.00;;;;;;;16.54;100.00;96070.03;5043546;28;20539;-49
2022/08/16 00:44:14;;;;;;;2.47;2.27;;;;;;;16.55;100.00;96075.16;5043373;28;20233;-49
2022/08/16 00:46:47;;;;;;;2.20;2.10;;;;;;;16.49;100.00;96075.94;5041910;28;20243;-48
2022/08/16 00:49:15;;;;;;;2.50;2.30;;;;;;;16.46;100.00;96073.66;5052004;28;20206;-49
2022/08/16 00:51:42;;;;;;;3.20;2.57;;;;;;;16.45;100.00;96074.66;5062525;28;20222;-48
2022/08/16 00:54:09;;;;;;;2.50;2.30;;;;;;;16.51;100.00;96078.44;5065172;28;20195;-49
2022/08/16 00:56:38;;;;;;;3.23;2.30;;;;;;;16.47;100.00;96075.31;5047243;28;20227;-49
2022/08/16 00:59:06;;;;;;;2.57;2.37;;;;;;;16.43;100.00;96082.88;5043252;28;20716;-48
2022/08/16 01:01:32;;;;;;;2.60;2.40;;;;;;;16.34;100.00;96083.19;5042248;28;20583;-48
2022/08/16 01:04:00;;;;;;;2.40;2.30;;;;;;;16.32;100.00;96083.41;5043001;28;21542;-49
2022/08/16 01:06:29;;;;;;;4.30;2.37;;;;;;;16.32;100.00;96087.91;5041529;28;20306;-48
2022/08/16 01:08:57;;;;;;;5.53;2.30;;;;;;;16.30;100.00;96090.75;5042576;28;20282;-48
2022/08/16 01:11:24;;;;;;;4.00;2.63;;;;;;;16.27;100.00;96088.47;5042314;28;20298;-48
2022/08/16 01:13:53;;;;;;;2.70;2.47;;;;;;;16.25;100.00;96093.19;5042872;28;20636;-49
2022/08/16 01:16:23;;;;;;;2.60;2.40;;;;;;;16.26;100.00;96094.03;5042441;28;20226;-49
2022/08/16 01:18:53;;;;;;;2.40;2.20;;;;;;;16.27;100.00;96101.81;5042243;28;20242;-49
2022/08/16 01:21:26;;;;;;;3.03;2.53;;;;;;;16.25;100.00;96100.38;5042528;28;20239;-49
2022/08/16 01:24:07;;;;;;;3.77;2.80;;;;;;;16.22;100.00;96106.09;5045119;28;20200;-49
2022/08/16 01:26:35;;;;;;;2.80;2.43;;;;;;;16.22;100.00;96104.25;5045150;28;20293;-48
2022/08/16 01:29:06;;;;;;;2.70;2.50;;;;;;;16.22;100.00;96106.09;5046286;28;20603;-50
2022/08/16 01:31:33;;;;;;;2.73;2.53;;;;;;;16.29;100.00;96101.63;5046638;28;20294;-49
2022/08/16 01:34:00;;;;;;;3.30;2.80;;;;;;;16.26;100.00;96107.38;5045429;28;20652;-49
2022/08/16 01:36:28;;;;;;;2.90;2.47;;;;;;;16.24;100.00;96104.88;5046273;28;20196;-49
2022/08/16 01:38:55;;;;;;;2.50;2.33;;;;;;;16.24;100.00;96099.53;5045240;28;20211;-48
2022/08/16 01:41:28;;;;;;;3.20;2.50;;;;;;;16.20;100.00;96092.09;5045165;28;20295;-48
2022/08/16 01:43:55;;;;;;;4.70;2.77;;;;;;;16.16;100.00;96089.00;5046120;28;20195;-49
2022/08/16 01:46:27;;;;;;;2.63;2.37;;;;;;;16.15;100.00;96094.53;5044939;28;20223;-49
2022/08/16 01:48:55;;;;;;;4.83;2.47;;;;;;;16.12;100.00;96094.91;5046160;28;20201;-49
2022/08/16 01:51:22;;;;;;;2.70;2.50;;;;;;;16.21;100.00;96091.09;5045744;28;20203;-49
2022/08/16 01:53:49;;;;;;;2.37;2.20;;;;;;;16.14;100.00;96090.19;5046362;28;20294;-49
2022/08/16 01:56:15;;;;;;;2.97;2.53;;;;;;;16.12;100.00;96086.91;5045004;28;20290;-49
2022/08/16 01:58:43;;;;;;;2.87;2.67;;;;;;;16.13;100.00;96085.88;5045793;28;20294;-49
2022/08/16 02:01:10;;;;;;;3.73;3.27;;;;;;;16.09;100.00;96084.59;5045163;28;20302;-48
2022/08/16 02:03:38;;;;;;;4.00;2.50;;;;;;;16.12;100.00;96090.38;5045905;28;20222;-48
2022/08/16 02:06:05;;;;;;;4.10;2.60;;;;;;;16.11;100.00;96090.59;5044818;28;20231;-48
2022/08/16 02:08:31;;;;;;;4.53;2.60;;;;;;;16.04;100.00;96092.38;5046136;28;20287;-48
2022/08/16 02:10:58;;;;;;;2.80;2.60;;;;;;;16.07;100.00;96086.66;5045867;28;20235;-48
2022/08/16 02:13:25;;;;;;;2.60;2.40;;;;;;;16.10;100.00;96086.25;5054510;28;20199;-49
2022/08/16 02:15:54;;;;;;;2.50;2.30;;;;;;;16.07;100.00;96086.66;5060534;28;20200;-50
2022/08/16 02:18:21;;;;;;;3.20;2.90;;;;;;;16.01;100.00;96088.25;5061272;28;20242;-48
2022/08/16 02:20:50;;;;;;;3.17;2.23;;;;;;;15.96;100.00;96087.97;5058431;28;21098;-48
2022/08/16 02:23:18;;;;;;;2.80;2.60;;;;;;;15.98;100.00;96093.13;5057796;28;20212;-50
2022/08/16 02:25:45;;;;;;;3.10;2.77;;;;;;;15.97;100.00;96086.97;5055276;28;20237;-49
2022/08/16 02:28:12;;;;;;;3.00;2.73;;;;;;;15.93;100.00;96081.19;5050391;28;20212;-49
2022/08/16 02:30:39;;;;;;;3.20;2.90;;;;;;;15.98;100.00;96082.47;5045172;28;20290;-49
2022/08/16 02:33:09;;;;;;;5.13;3.00;;;;;;;15.89;100.00;96079.91;5045032;28;20724;-49
2022/08/16 02:35:36;;;;;;;3.63;3.30;;;;;;;15.81;100.00;96082.69;5043397;28;20686;-49
2022/08/16 02:38:03;;;;;;;3.17;2.97;;;;;;;15.79;100.00;96074.06;5044613;28;20289;-49
2022/08/16 02:40:30;;;;;;;3.03;2.80;;;;;;;15.81;100.00;96080.03;5044592;28;20968;-48
2022/08/16 02:42:57;;;;;;;3.20;3.00;;;;;;;15.82;100.00;96079.00;5045201;28;20247;-48
2022/08/16 02:45:26;;;;;;;3.47;2.90;;;;;;;15.76;100.00;96068.28;5044880;28;20303;-49
2022/08/16 02:47:52;;;;;;;3.10;2.90;;;;;;;15.75;100.00;96072.78;5044261;28;20239;-48
2022/08/16 02:50:22;;;;;;;3.13;2.83;;;;;;;15.80;100.00;96064.22;5044355;28;20527;-49
2022/08/16 02:52:49;;;;;;;6.03;3.43;;;;;;;15.77;100.00;96065.41;5045504;28;20211;-48
2022/08/16 02:55:16;;;;;;;2.80;2.70;;;;;;;15.75;100.00;96051.47;5046786;28;20281;-48
2022/08/16 02:57:42;;;;;;;4.70;2.90;;;;;;;15.76;100.00;96053.13;5045064;28;20207;-51
2022/08/16 03:00:11;;;;;;;3.30;3.10;;;;;;;15.70;100.00;96055.69;5052025;28;20274;-49
2022/08/16 03:02:39;;;;;;;3.77;3.00;;;;;;;15.70;100.00;96048.53;5065241;28;20218;-49
2022/08/16 03:05:08;;;;;;;3.40;3.20;;;;;;;15.70;100.00;96045.03;5068852;28;20230;-50
2022/08/16 03:07:36;;;;;;;3.50;3.20;;;;;;;15.67;100.00;96053.41;5053959;28;20231;-48
2022/08/16 03:10:04;;;;;;;3.17;2.97;;;;;;;15.65;100.00;96045.63;5045893;28;20289;-49
2022/08/16 03:12:31;;;;;;;5.50;3.00;;;;;;;15.65;100.00;96048.28;5044819;28;20286;-49
2022/08/16 03:14:58;;;;;;;3.50;3.10;;;;;;;15.64;100.00;96037.78;5044306;28;20597;-48
2022/08/16 03:17:25;;;;;;;3.10;2.90;;;;;;;15.61;100.00;96036.34;5044374;28;20287;-49
2022/08/16 03:19:53;;;;;;;4.53;3.00;;;;;;;15.62;100.00;96031.84;5044944;28;20204;-49
2022/08/16 03:22:20;;;;;;;4.00;3.50;;;;;;;15.61;100.00;96033.69;5044328;28;20233;-47
2022/08/16 03:24:48;;;;;;;3.33;3.10;;;;;;;15.56;100.00;96036.06;5043859;28;20277;-49
2022/08/16 03:27:15;;;;;;;3.30;3.00;;;;;;;15.51;100.00;96032.34;5043773;28;20213;-48
2022/08/16 03:29:42;;;;;;;2.90;2.70;;;;;;;15.55;100.00;96028.28;5044017;28;20286;-49
2022/08/16 03:32:09;;;;;;;3.30;2.90;;;;;;;15.55;100.00;96036.28;5044049;28;20719;-48
2022/08/16 03:34:35;;;;;;;3.60;3.27;;;;;;;15.56;100.00;96036.06;5042998;28;20211;-48
2022/08/16 03:37:03;;;;;;;3.03;2.83;;;;;;;15.59;100.00;96038.34;5042653;28;20343;-49
2022/08/16 03:39:30;;;;;;;3.30;3.00;;;;;;;15.60;100.00;96034.69;5043769;28;20207;-48
2022/08/16 03:41:58;;;;;;;3.27;3.03;;;;;;;15.57;100.00;96044.91;5043318;28;20299;-49
2022/08/16 03:44:25;;;;;;;3.37;3.13;;;;;;;15.57;100.00;96045.72;5043912;28;20303;-47
2022/08/16 03:46:52;;;;;;;3.13;2.83;;;;;;;15.59;100.00;96038.34;5042230;28;20331;-49
2022/08/16 03:49:19;;;;;;;3.60;3.30;;;;;;;15.61;100.00;96036.34;5043654;28;20196;-49
2022/08/16 03:51:46;;;;;;;4.13;3.20;;;;;;;15.60;100.00;96034.69;5043082;28;20217;-49
2022/08/16 03:54:12;;;;;;;2.97;2.77;;;;;;;15.56;100.00;96030.75;5043179;28;20316;-48
2022/08/16 03:56:39;;;;;;;4.07;3.20;;;;;;;15.56;100.00;96036.06;5042799;28;20283;-50
2022/08/16 03:59:07;;;;;;;3.00;2.77;;;;;;;15.52;100.00;96032.13;5043528;28;20302;-49
2022/08/16 04:01:34;;;;;;;4.87;3.30;;;;;;;15.54;100.00;96035.44;5042042;28;20211;-48
2022/08/16 04:04:01;;;;;;;4.57;3.33;;;;;;;15.47;100.00;96031.03;5043481;28;20295;-49
2022/08/16 04:06:27;;;;;;;4.63;2.93;;;;;;;15.40;100.00;96022.97;5044074;28;20223;-48
2022/08/16 04:08:54;;;;;;;4.50;3.30;;;;;;;15.38;100.00;96028.47;5044781;28;20318;-48
2022/08/16 04:11:21;;;;;;;3.93;3.20;;;;;;;15.37;100.00;96024.13;5042977;28;20203;-49
2022/08/16 04:13:47;;;;;;;3.33;3.13;;;;;;;15.42;100.00;96023.59;5043204;28;20200;-48
2022/08/16 04:16:18;;;;;;;2.80;2.60;;;;;;;15.38;100.00;96023.13;5042311;28;20207;-49
2022/08/16 04:18:45;;;;;;;3.27;3.07;;;;;;;15.38;100.00;96016.97;5041949;28;20688;-49
2022/08/16 04:21:12;;;;;;;3.67;3.00;;;;;;;15.38;100.00;96023.13;5042954;28;20200;-49
2022/08/16 04:23:38;;;;;;;4.03;3.03;;;;;;;15.43;100.00;96027.91;5042448;28;20269;-48
2022/08/16 04:26:05;;;;;;;3.77;2.90;;;;;;;15.40;100.00;96022.97;5042452;28;20250;-49
2022/08/16 04:28:32;;;;;;;4.57;2.70;;;;;;;15.38;100.00;96027.63;5042462;28;20266;-49
2022/08/16 04:30:59;;;;;;;3.40;3.10;;;;;;;15.34;100.00;96029.00;5042082;28;20301;-49
2022/08/16 04:33:27;;;;;;;3.10;2.90;;;;;;;15.43;100.00;96034.06;5042317;28;20291;-49
2022/08/16 04:35:54;;;;;;;3.60;3.30;;;;;;;15.44;100.00;96029.56;5042748;28;20342;-48
2022/08/16 04:38:21;;;;;;;3.40;2.93;;;;;;;15.38;100.00;96030.28;5041967;28;20624;-49
2022/08/16 04:40:48;;;;;;;3.70;3.40;;;;;;;15.40;100.00;96026.44;5042288;28;20290;-49
2022/08/16 04:43:14;;;;;;;3.80;3.27;;;;;;;15.45;100.00;96036.53;5043235;28;20298;-49
2022/08/16 04:45:41;;;;;;;3.33;3.13;;;;;;;15.48;100.00;96043.34;5042160;28;20405;-49
2022/08/16 04:48:09;;;;;;;3.33;3.00;;;;;;;15.55;100.00;96045.09;5041916;28;20261;-50
2022/08/16 04:50:37;;;;;;;3.87;3.43;;;;;;;15.55;100.00;96047.78;5042318;28;20218;-50
2022/08/16 04:53:04;;;;;;;3.97;3.57;;;;;;;15.58;100.00;96043.91;5042579;28;20207;-48
2022/08/16 04:55:33;;;;;;;3.17;2.97;;;;;;;15.56;100.00;96049.41;5044922;28;20572;-48
2022/08/16 04:58:00;;;;;;;3.70;2.70;;;;;;;15.62;100.00;96056.66;5041874;28;20195;-48
2022/08/16 05:00:32;;;;;;;3.67;3.27;;;;;;;15.71;100.00;96055.50;5041841;28;20208;-47
2022/08/16 05:03:00;;;;;;;3.63;3.33;;;;;;;15.80;100.00;96054.38;5041354;28;20203;-48
2022/08/16 05:05:27;;;;;;;4.50;3.40;;;;;;;15.80;100.00;96051.69;5041472;28;20655;-48
2022/08/16 05:07:55;;;;;;;3.53;3.23;;;;;;;15.90;100.00;96054.91;5041398;28;20290;-48
2022/08/16 05:10:22;;;;;;;3.53;3.33;;;;;;;15.97;100.00;96056.81;5040479;28;20699;-49
2022/08/16 05:12:49;;;;;;;3.30;3.00;;;;;;;16.09;100.00;96057.94;5041991;28;20291;-52
2022/08/16 05:15:15;;;;;;;3.37;3.17;;;;;;;16.24;100.00;96061.34;5063396;28;20188;-54
2022/08/16 05:17:42;;;;;;;3.37;3.17;;;;;;;16.35;100.00;96055.50;5063498;28;20203;-49
2022/08/16 05:20:10;;;;;;;4.07;3.20;;;;;;;16.42;100.00;96048.38;5057404;28;20565;-48
2022/08/16 05:22:37;;;;;;;4.23;3.20;;;;;;;16.61;100.00;96047.75;5043263;28;20199;-48
2022/08/16 05:25:06;;;;;;;3.87;3.40;;;;;;;16.77;100.00;96052.75;5041525;28;20211;-49
2022/08/16 05:27:33;;;;;;;3.87;3.47;;;;;;;16.84;100.00;96042.94;5042477;28;20734;-48
2022/08/16 05:30:01;;;;;;;4.03;3.43;;;;;;;16.89;100.00;96051.22;5042069;28;20538;-49
2022/08/16 05:32:28;;;;;;;4.07;3.20;;;;;;;17.00;100.00;96051.69;5042465;28;20238;-48
2022/08/16 05:34:55;;;;;;;3.70;3.40;;;;;;;16.97;100.00;96050.19;5041740;28;20231;-49
2022/08/16 05:37:23;;;;;;;6.70;4.35;;;;;;;17.02;100.00;96049.63;5041551;28;20199;-48
2022/08/16 05:39:49;;;;;;;4.07;3.77;;;;;;;17.10;100.00;96057.47;5041607;28;20227;-49
2022/08/16 05:42:17;;;;;;;6.67;3.97;;;;;;;17.27;100.00;96064.97;5042216;28;20585;-49
2022/08/16 05:44:44;;;;;;;5.30;3.97;;;;;;;17.50;100.00;96066.50;5042033;28;20587;-48
2022/08/16 05:47:11;;;;;;;5.53;3.97;;;;;;;17.70;100.00;96059.41;5041983;28;20249;-49
2022/08/16 05:49:37;;;;;;;4.22;3.75;;;;;;;18.05;100.00;96062.78;5042776;28;20618;-49
2022/08/16 05:52:04;;;;;;;4.18;3.88;;;;;;;18.42;99.15;96058.72;5041871;28;20295;-49
2022/08/16 05:54:31;;;;;;;5.22;3.88;;;;;;;18.69;96.13;96063.88;5042199;28;20322;-50
2022/08/16 05:56:58;;;;;;;4.57;4.18;;;;;;;18.91;94.14;96058.28;5041640;28;20199;-49
2022/08/16 05:59:27;;;;;;;4.65;4.20;;;;;;;19.06;93.24;96057.00;5041276;28;20310;-48
2022/08/16 06:01:54;;;;;;;5.22;4.03;;;;;;;19.27;90.61;96062.09;5041770;28;20214;-50
2022/08/16 06:04:21;;;;;;;4.45;4.05;;;;;;;19.48;91.07;96055.69;5041649;28;20698;-49
2022/08/16 06:06:48;;;;;;;7.97;4.80;;;;;;;19.70;87.83;96048.94;5040957;28;20219;-48
2022/08/16 06:09:15;;;;;;;8.70;4.57;;;;;;;19.95;86.13;96046.34;5043356;28;20290;-48
2022/08/16 06:11:42;;;;;;;4.75;4.40;;;;;;;20.10;86.31;96054.09;5045762;28;20201;-50
2022/08/16 06:14:09;;;;;;;9.10;4.05;;;;;;;20.61;83.87;96064.72;5045415;28;20219;-49
2022/08/16 06:16:37;;;;;;;5.05;4.20;;;;;;;20.91;82.19;96062.97;5044983;28;20278;-49
2022/08/16 06:19:04;;;;;;;4.57;4.15;;;;;;;21.12;79.57;96067.16;5044518;28;20199;-48
2022/08/16 06:21:31;;;;;;;5.22;4.10;;;;;;;21.21;80.39;96061.28;5044791;28;20206;-49
2022/08/16 06:23:57;;;;;;;4.38;4.07;;;;;;;21.39;79.59;96057.75;5044312;28;20311;-49
2022/08/16 06:26:24;;;;;;;4.70;4.30;;;;;;;21.47;77.23;96054.75;5044822;28;20234;-48
2022/08/16 06:28:51;;;;;;;4.10;3.80;;;;;;;21.70;77.51;96054.06;5044469;28;20243;-50
2022/08/16 06:31:18;;;;;;;4.63;4.03;;;;;;;21.84;77.22;96044.78;5044954;28;20287;-49
2022/08/16 06:33:46;;;;;;;4.60;3.72;;;;;;;22.02;77.00;96054.72;5044267;28;20520;-48
2022/08/16 06:36:15;;;;;;;5.57;3.97;;;;;;;22.03;76.52;96053.66;5044298;28;20250;-50
2022/08/16 06:38:43;;;;;;;4.18;3.85;;;;;;;22.42;74.14;96054.94;5043915;28;20313;-50
2022/08/16 06:41:11;;;;;;;4.68;4.28;;;;;;;22.35;73.43;96056.91;5044305;28;20206;-49
2022/08/16 06:43:38;;;;;;;8.93;4.45;;;;;;;22.52;73.25;96061.41;5044565;28;20208;-49
2022/08/16 06:46:08;;;;;;;6.57;3.92;;;;;;;22.79;72.75;96065.34;5044163;28;20689;-49
2022/08/16 06:48:35;;;;;;;5.40;3.40;;;;;;;23.17;69.62;96066.75;5044099;28;20240;-50
2022/08/16 06:51:04;;;;;;;5.82;4.22;;;;;;;23.14;68.03;96069.91;5043607;28;20744;-49
2022/08/16 06:53:33;;;;;;;5.00;3.47;;;;;;;23.21;70.07;96062.50;5044246;28;20203;-50
2022/08/16 06:56:00;;;;;;;3.60;3.40;;;;;;;23.26;69.17;96062.66;5043505;28;20199;-49
2022/08/16 06:58:27;;;;;;;3.80;3.53;;;;;;;23.36;69.80;96067.44;5043750;28;20531;-50
2022/08/16 07:00:55;;;;;;;3.50;3.20;;;;;;;23.68;68.66;96064.13;5043887;28;20217;-49
2022/08/16 07:03:22;;;;;;;7.45;3.70;;;;;;;23.81;67.54;96062.22;5044150;28;20238;-49
2022/08/16 07:05:49;;;;;;;4.20;3.40;;;;;;;23.84;64.72;96064.44;5043681;28;20215;-49
2022/08/16 07:08:17;;;;;;;3.70;3.40;;;;;;;24.20;65.73;96064.06;5044408;28;20586;-50
2022/08/16 07:10:44;;;;;;;3.60;3.30;;;;;;;24.21;65.21;96060.31;5044175;28;20213;-50
2022/08/16 07:13:10;;;;;;;3.45;3.15;;;;;;;24.32;65.67;96056.72;5044100;28;20295;-50
2022/08/16 07:15:37;;;;;;;4.50;3.20;;;;;;;24.31;64.80;96060.50;5043677;28;20264;-50
2022/08/16 07:18:04;;;;;;;3.50;3.03;;;;;;;24.38;65.98;96063.03;5044092;28;20720;-51
2022/08/16 07:20:30;;;;;;;4.47;3.20;;;;;;;24.72;63.75;96065.56;5042998;28;20192;-49
2022/08/16 07:22:57;;;;;;;4.05;3.10;;;;;;;24.98;63.14;96055.13;5043528;28;20321;-50
2022/08/16 07:25:26;;;;;;;4.72;3.33;;;;;;;25.03;62.56;96066.06;5043828;28;20203;-50
2022/08/16 07:27:52;;;;;;;3.63;3.30;;;;;;;25.08;62.08;96061.53;5049602;28;20604;-49
2022/08/16 07:30:19;;;;;;;3.85;3.55;;;;;;;25.13;61.31;96058.09;5060887;28;20196;-50
2022/08/16 07:32:46;;;;;;;4.45;3.58;;;;;;;25.36;60.80;96068.72;5060631;28;20229;-56
2022/08/16 07:35:12;;;;;;;4.13;3.72;;;;;;;25.36;60.68;96073.31;5059912;28;20220;-49
2022/08/16 07:37:39;;;;;;;7.75;3.50;;;;;;;25.25;60.18;96065.03;5049400;28;20655;-50
2022/08/16 07:40:08;;;;;;;6.97;3.92;;;;;;;25.15;58.75;96083.03;5048216;28;20235;-51
2022/08/16 07:42:36;;;;;;;8.57;4.30;;;;;;;25.26;59.02;96073.97;5045634;28;20239;-50
2022/08/16 07:45:03;;;;;;;5.95;3.80;;;;;;;25.43;60.15;96080.19;5044363;28;20290;-49
2022/08/16 07:47:29;;;;;;;9.23;4.03;;;;;;;25.59;58.12;96076.63;5043800;28;20338;-49
2022/08/16 07:49:56;;;;;;;4.47;3.28;;;;;;;25.84;58.69;96078.84;5043332;28;20203;-50
2022/08/16 07:52:23;;;;;;;5.25;3.58;;;;;;;25.81;56.82;96081.25;5044557;28;20213;-51
2022/08/16 07:54:50;;;;;;;4.25;3.30;;;;;;;25.92;56.80;96085.72;5043822;28;20279;-50
2022/08/16 07:57:17;;;;;;;6.20;3.90;;;;;;;26.00;55.72;96079.84;5043254;28;20274;-51
2022/08/16 07:59:45;;;;;;;25.65;5.95;;;;;;;25.97;55.14;96086.56;5044547;28;20207;-50
2022/08/16 08:02:12;;;;;;;7.75;3.63;;;;;;;26.15;56.72;96088.13;5066367;28;20191;-51
2022/08/16 08:04:42;;;;;;;4.43;3.58;;;;;;;26.21;55.91;96087.16;5067299;28;20180;-51
2022/08/16 08:07:08;;;;;;;7.68;3.90;;;;;;;26.26;55.49;96089.09;5066994;28;20247;-50
2022/08/16 08:09:35;;;;;;;3.67;3.38;;;;;;;25.97;57.34;96091.19;5064128;28;20200;-50
2022/08/16 08:12:02;;;;;;;4.93;3.30;;;;;;;26.41;56.22;96090.09;5071665;28;20203;-51
2022/08/16 08:14:28;;;;;;;4.50;3.33;;;;;;;26.50;57.08;96090.47;5065145;28;20822;-51
2022/08/16 08:16:58;;;;;;;5.07;3.60;;;;;;;26.32;55.24;96088.94;5066591;28;20179;-50
2022/08/16 08:19:27;;;;;;;3.30;3.10;;;;;;;26.59;55.50;96088.91;5066551;28;20223;-50
2022/08/16 08:21:54;;;;;;;3.70;3.30;;;;;;;26.64;55.74;96087.03;5066456;28;20199;-50
2022/08/16 08:24:22;;;;;;;3.97;3.13;;;;;;;26.57;54.14;96086.44;5066079;28;20212;-50
2022/08/16 08:26:49;;;;;;;3.70;3.40;;;;;;;26.69;53.14;96084.41;5043037;28;20212;-51
2022/08/16 08:29:19;;;;;;;3.60;3.30;;;;;;;26.79;53.06;96083.66;5042260;28;20302;-49
2022/08/16 08:31:46;;;;;;;4.13;3.60;;;;;;;26.48;52.86;96093.41;5043128;28;20196;-49
2022/08/16 08:34:14;;;;;;;4.15;3.38;;;;;;;26.59;53.95;96078.88;5042494;28;20294;-49
2022/08/16 08:36:40;;;;;;;5.22;3.50;;;;;;;26.47;52.83;96078.22;5042398;28;20214;-49
2022/08/16 08:39:07;;;;;;;3.85;3.55;;;;;;;26.35;53.67;96080.28;5041826;28;20295;-49
2022/08/16 08:41:34;;;;;;;7.80;3.80;;;;;;;26.81;53.37;96080.69;5042113;28;20283;-49
2022/08/16 08:44:00;;;;;;;4.28;3.40;;;;;;;26.95;52.95;96077.31;5042304;28;20196;-50
2022/08/16 08:46:27;;;;;;;4.32;3.30;;;;;;;27.24;51.73;96085.13;5041241;28;20195;-50
2022/08/16 08:48:55;;;;;;;12.57;3.78;;;;;;;27.50;51.62;96092.38;5043086;28;20202;-49
2022/08/16 08:51:24;;;;;;;6.18;3.53;;;;;;;27.41;50.05;96092.03;5041636;28;20295;-50
2022/08/16 08:53:53;;;;;;;3.70;3.30;;;;;;;27.57;50.84;96096.50;5041957;28;20320;-51
2022/08/16 08:56:20;;;;;;;3.97;3.65;;;;;;;27.12;49.41;96090.75;5041557;28;20223;-50
2022/08/16 08:58:47;;;;;;;3.67;3.42;;;;;;;27.64;50.53;96093.53;5042301;28;20353;-50
2022/08/16 09:01:14;;;;;;;5.50;3.70;;;;;;;27.83;49.31;96089.31;5041740;28;20310;-49
2022/08/16 09:03:40;;;;;;;3.60;3.30;;;;;;;28.03;49.10;96086.66;5042525;28;20299;-51
2022/08/16 09:06:08;;;;;;;4.47;3.20;;;;;;;28.07;47.50;96084.25;5041201;28;20291;-49
2022/08/16 09:08:36;;;;;;;3.85;3.47;;;;;;;28.36;48.41;96090.88;5041927;28;20226;-49
2022/08/16 09:11:03;;;;;;;5.07;3.13;;;;;;;28.33;48.89;96080.53;5041757;28;20662;-48
2022/08/16 09:13:31;;;;;;;3.30;3.10;;;;;;;27.99;48.40;96079.28;5041923;28;20221;-50
2022/08/16 09:15:58;;;;;;;3.30;2.97;;;;;;;28.45;49.11;96081.09;5040927;28;20204;-50
2022/08/16 09:18:26;;;;;;;6.50;3.90;;;;;;;28.41;46.78;96082.72;5042225;28;20290;-50
2022/08/16 09:20:54;;;;;;;4.82;3.55;;;;;;;28.13;47.35;96080.47;5041735;28;20257;-50
2022/08/16 09:23:23;;;;;;;9.10;3.67;;;;;;;28.31;47.96;96077.25;5041373;28;20211;-51
2022/08/16 09:25:51;;;;;;;8.75;3.70;;;;;;;28.23;47.41;96076.97;5040966;28;20223;-50
2022/08/16 09:28:18;;;;;;;4.18;3.30;;;;;;;28.31;47.47;96079.16;5041105;28;20750;-49
2022/08/16 09:30:44;;;;;;;4.97;2.97;;;;;;;28.71;47.21;96078.44;5041397;28;20202;-50
2022/08/16 09:33:17;;;;;;;3.60;3.30;;;;;;;28.75;48.07;96063.22;5041552;28;20290;-49
2022/08/16 09:35:44;;;;;;;4.78;3.40;;;;;;;28.84;46.17;96072.50;5041465;28;20522;-49
2022/08/16 09:38:12;;;;;;;4.65;3.20;;;;;;;29.04;45.53;96075.19;5052208;28;20842;-51
2022/08/16 09:40:40;;;;;;;4.43;3.20;;;;;;;29.35;44.55;96076.81;5060482;28;20263;-50
2022/08/16 09:43:08;;;;;;;3.35;3.05;;;;;;;29.37;44.44;96071.91;5059201;28;20199;-51
2022/08/16 09:45:37;;;;;;;3.63;3.33;;;;;;;29.40;44.63;96076.84;5055157;28;20306;-51
2022/08/16 09:48:05;;;;;;;5.22;3.97;;;;;;;29.22;44.14;96062.94;5045908;28;20238;-50
2022/08/16 09:50:33;;;;;;;5.80;3.60;;;;;;;29.44;44.08;96072.44;5045802;28;20278;-51
2022/08/16 09:53:00;;;;;;;7.93;3.45;;;;;;;29.38;44.21;96073.56;5045149;28;20632;-49
2022/08/16 09:55:28;;;;;;;18.15;4.93;;;;;;;29.50;45.52;96076.00;5045833;28;20296;-50
2022/08/16 09:57:56;;;;;;;5.65;3.70;;;;;;;29.13;42.91;96073.56;5045431;28;20279;-49
2022/08/16 10:00:25;;;;;;;5.05;3.75;;;;;;;28.96;44.83;96071.13;5045125;28;20211;-50
2022/08/16 10:02:52;;;;;;;3.10;2.90;;;;;;;28.77;44.34;96071.94;5045829;28;20225;-49
2022/08/16 10:05:20;;;;;;;3.60;3.10;;;;;;;29.14;46.29;96067.03;5045823;28;20219;-49
2022/08/16 10:07:51;;;;;;;3.35;3.00;;;;;;;29.34;44.22;96066.19;5044850;28;20767;-49
2022/08/16 10:10:18;;;;;;;4.32;3.10;;;;;;;29.43;42.04;96065.38;5044438;28;20207;-49
2022/08/16 10:15:40;;;;;;;5.28;2.92;;;;;;;29.86;41.38;96063.91;4997253;28;20196;-50
2022/08/16 10:18:11;;;;;;;4.85;3.15;;;;;;;29.75;41.44;96061.47;5044714;28;21459;-50
2022/08/16 10:20:45;;;;;;;5.00;3.60;;;;;;;30.16;41.01;96067.59;5044645;28;20644;-50
2022/08/16 10:23:14;;;;;;;4.20;3.03;;;;;;;29.99;42.49;96067.94;5045017;28;20290;-49
2022/08/16 10:25:42;;;;;;;3.45;3.15;;;;;;;30.13;40.79;96068.97;5044438;28;20283;-50
2022/08/16 10:28:09;;;;;;;5.30;3.25;;;;;;;29.79;40.74;96068.00;5044582;28;20311;-50
2022/08/16 10:30:37;;;;;;;5.40;3.55;;;;;;;30.13;40.80;96063.50;5045100;28;20231;-50
2022/08/16 10:33:05;;;;;;;3.70;3.38;;;;;;;30.03;38.83;96066.28;5044642;28;20282;-49
2022/08/16 10:35:32;;;;;;;3.70;3.35;;;;;;;30.23;39.63;96068.91;5044570;28;20338;-49
2022/08/16 10:37:59;;;;;;;3.10;2.80;;;;;;;30.45;39.90;96063.91;5044996;28;20297;-50
2022/08/16 10:40:25;;;;;;;3.97;3.47;;;;;;;30.37;40.41;96063.66;5045220;28;20221;-51
2022/08/16 10:42:52;;;;;;;3.45;3.10;;;;;;;30.45;40.34;96055.72;5044920;28;20241;-50
2022/08/16 10:45:19;;;;;;;3.50;3.10;;;;;;;30.62;39.83;96060.78;5044332;28;20669;-50
2022/08/16 10:47:46;;;;;;;3.40;3.10;;;;;;;30.58;38.46;96055.09;5044595;28;20319;-50
2022/08/16 10:50:14;;;;;;;3.13;2.85;;;;;;;30.88;40.45;96056.78;5044233;28;20210;-50
2022/08/16 10:52:40;;;;;;;6.82;3.20;;;;;;;31.12;38.63;96059.59;5044455;28;20298;-50
2022/08/16 10:55:11;;;;;;;4.78;3.45;;;;;;;31.00;36.95;96062.69;5042881;28;20294;-50
2022/08/16 10:57:38;;;;;;;3.53;3.17;;;;;;;31.01;36.84;96058.88;5043723;28;20705;-51
2022/08/16 11:00:08;;;;;;;4.40;4.03;;;;;;;30.93;37.50;96053.19;5044137;28;20192;-50
2022/08/16 11:02:35;;;;;;;4.07;3.67;;;;;;;31.05;38.19;96048.19;5044121;28;20262;-51
2022/08/16 11:05:03;;;;;;;4.22;3.85;;;;;;;30.90;38.42;96051.03;5043602;28;21338;-49
2022/08/16 11:07:31;;;;;;;4.00;3.60;;;;;;;30.92;38.82;96048.84;5043425;28;20250;-48
2022/08/16 11:10:00;;;;;;;3.38;3.08;;;;;;;31.20;39.88;96049.97;5044345;28;20206;-51
2022/08/16 11:12:27;;;;;;;4.78;3.35;;;;;;;31.34;37.89;96049.03;5044045;28;20207;-50
2022/08/16 11:14:55;;;;;;;3.35;3.15;;;;;;;31.18;37.10;96052.19;5044525;28;20213;-50
2022/08/16 11:17:21;;;;;;;4.82;3.20;;;;;;;30.89;35.80;96049.41;5043055;28;20209;-50
2022/08/16 11:19:48;;;;;;;5.75;3.40;;;;;;;30.98;36.94;96050.44;5043974;28;20202;-50
2022/08/16 11:22:15;;;;;;;6.60;3.30;;;;;;;30.77;37.70;96038.03;5043337;28;20217;-51
2022/08/16 11:24:43;;;;;;;3.40;3.10;;;;;;;30.95;38.29;96038.16;5044238;28;20583;-51
2022/08/16 11:27:12;;;;;;;4.55;3.15;;;;;;;30.87;36.40;96041.50;5042951;28;20286;-51
2022/08/16 11:29:38;;;;;;;3.05;2.85;;;;;;;31.21;36.94;96030.59;5043519;28;20311;-50
2022/08/16 11:32:05;;;;;;;3.50;3.10;;;;;;;31.18;36.65;96031.13;5043377;28;20286;-51
2022/08/16 11:34:32;;;;;;;4.75;3.10;;;;;;;31.27;36.68;96031.34;5043658;28;20291;-51